Bow Star — S6BK3 — position and weather

sailwx.info

Track history (hours):
 
Tides and Currents Weather Stations Pressure Air Temp Water Temp Dewpoint Dewpoint Depression Visibility Wind Speed Wind Dir Waves Ship Positions

Bow Star

Last reported at 2018-Jan-09 17:48 UTC. Time now 2018-Jan-19 21:22 UTC.
Position N 09°09' W 079°49'.
Warning: this ship's position is 10 days out of date.

Length 182 m; draft 11.9 m.

Type: Tanker. MMSI: 565397000.

Date/timePositionNaut miles runAvg speedWind from/ knotsBaromVisibWave heightAir tempDewpointWater temp
2018-Jan-09 17:48N 09°09' W 079°49'4 8.7
2018-Jan-09 17:21N 09°11' W 079°52'3 9.2
2018-Jan-09 17:00N 09°12' W 079°55'1 1.8
2018-Jan-09 16:31N 09°13' W 079°56'0 0.1
2018-Jan-09 16:00N 09°13' W 079°56'0 0.0
2018-Jan-09 15:27N 09°13' W 079°56'0 0.0
2018-Jan-09 15:00N 09°13' W 079°56'0 0.1
2018-Jan-09 14:30N 09°13' W 079°56'0 0.1
2018-Jan-09 14:00N 09°13' W 079°56'0 0.1
2018-Jan-09 13:30N 09°13' W 079°56'0 0.0
2018-Jan-09 13:00N 09°13' W 079°56'0 0.0
2018-Jan-09 12:30N 09°13' W 079°56'0 1.0
2018-Jan-09 12:01N 09°13' W 079°56'3 5.4
2018-Jan-09 11:30N 09°16' W 079°55'1 1.2
2018-Jan-09 11:00N 09°16' W 079°55'0 0.5
2018-Jan-09 10:30N 09°17' W 079°55'0 0.4
2018-Jan-09 10:00N 09°17' W 079°55'1 1.7
2018-Jan-09 09:30N 09°18' W 079°55'2 4.8
2018-Jan-09 09:01N 09°20' W 079°55'2 4.5
2018-Jan-09 08:30N 09°22' W 079°55'3 6.8
2018-Jan-09 08:00N 09°26' W 079°55'3 5.9
2018-Jan-09 07:31N 09°27' W 079°57'0 0.7
2018-Jan-09 06:59N 09°27' W 079°58'0 0.1
2018-Jan-09 06:29N 09°27' W 079°58'0 0.0
2018-Jan-09 05:59N 09°27' W 079°58'0 0.0
2018-Jan-09 05:29N 09°27' W 079°58'0 0.0
2018-Jan-09 04:59N 09°27' W 079°58'0 0.1
2018-Jan-09 04:29N 09°27' W 079°58'0 0.1
2018-Jan-09 03:59N 09°27' W 079°58'0 0.1
2018-Jan-09 03:29N 09°27' W 079°58'0 0.0
2018-Jan-09 02:59N 09°27' W 079°58'0 0.0
2018-Jan-09 02:29N 09°27' W 079°58'0 0.0
2018-Jan-09 01:59N 09°27' W 079°58'0 0.0
2018-Jan-09 01:26N 09°27' W 079°58'0 0.0
2018-Jan-09 00:59N 09°27' W 079°58'0 0.0
2018-Jan-09 00:29N 09°27' W 079°58'0 0.0
2018-Jan-08 23:59N 09°27' W 079°58'0 0.0
2018-Jan-08 23:29N 09°27' W 079°58'0 0.0
2018-Jan-08 22:59N 09°27' W 079°58'0 0.0
2018-Jan-08 22:29N 09°27' W 079°58'0 0.1
2018-Jan-08 21:59N 09°27' W 079°58'0 0.0
2018-Jan-08 21:29N 09°27' W 079°58'0 0.0
2018-Jan-08 20:59N 09°27' W 079°58'0 0.0
2018-Jan-08 20:29N 09°27' W 079°58'0 0.0
2018-Jan-08 19:59N 09°27' W 079°58'0 0.0
2018-Jan-08 19:29N 09°27' W 079°58'0 0.0
2018-Jan-08 18:59N 09°27' W 079°58'0 0.0
2018-Jan-08 18:29N 09°27' W 079°58'0 0.0
2018-Jan-08 17:59N 09°27' W 079°58'0 0.0
2018-Jan-08 17:29N 09°27' W 079°58'0 0.1
2018-Jan-08 16:59N 09°27' W 079°58'0 0.1
2018-Jan-08 16:26N 09°27' W 079°58'0 0.2
2018-Jan-08 16:00N 09°27' W 079°58'3 6.1
2018-Jan-08 15:30N 09°29' W 079°55'5 9.5
2018-Jan-08 15:00N 09°33' W 079°53'612.7
2018-Jan-08 14:30N 09°39' W 079°53'  
2018-Jan-03 11:33N 29°22' W 094°48'111.9
2018-Jan-03 11:26N 29°23' W 094°49'510.8
2018-Jan-03 11:00N 29°27' W 094°51'510.1
2018-Jan-03 10:30N 29°32' W 094°54'5 9.7
2018-Jan-03 10:00N 29°36' W 094°57'5 9.5
2018-Jan-03 09:30N 29°40' W 094°59'4 7.0
2018-Jan-03 09:00N 29°43' W 095°01'2 5.0
2018-Jan-03 08:30N 29°44' W 095°04'2 4.0
2018-Jan-03 08:00N 29°45' W 095°06'0 0.0
2018-Jan-02 07:14N 29°45' W 095°06'0 1.1
2018-Jan-02 06:58N 29°45' W 095°06'2 4.3
2018-Jan-02 06:30N 29°44' W 095°04'3 6.0
2018-Jan-02 06:00N 29°42' W 095°01'4 8.7
2018-Jan-02 05:31N 29°39' W 094°58'1412.0
2018-Jan-02 04:19N 29°26' W 094°50'  
2017-Dec-30 20:11N 29°22' W 094°48'210.1
2017-Dec-30 19:58N 29°24' W 094°49'510.5
2017-Dec-30 19:29N 29°28' W 094°51'511.2
2017-Dec-30 19:00N 29°33' W 094°54'511.0
2017-Dec-30 18:30N 29°38' W 094°58'5 9.6
2017-Dec-30 18:00N 29°42' W 094°60'  
Track history (hours):
 
Tides and Currents Weather Stations Pressure Air Temp Water Temp Dewpoint Dewpoint Depression Visibility Wind Speed Wind Dir Waves Ship Positions

Bow Star

Last reported at 2018-Jan-09 17:48 UTC. Time now 2018-Jan-19 21:22 UTC.
Position N 09°09' W 079°49'.
Warning: this ship's position is 10 days out of date.

Length 182 m; draft 11.9 m.

Type: Tanker. MMSI: 565397000.

Date/timePositionNaut miles runAvg speedWind from/ knotsBaromVisibWave heightAir tempDewpointWater temp
2018-Jan-09 17:48N 09°09' W 079°49'4 8.7
2018-Jan-09 17:21N 09°11' W 079°52'3 9.2
2018-Jan-09 17:00N 09°12' W 079°55'1 1.8
2018-Jan-09 16:31N 09°13' W 079°56'0 0.1
2018-Jan-09 16:00N 09°13' W 079°56'0 0.0
2018-Jan-09 15:27N 09°13' W 079°56'0 0.0
2018-Jan-09 15:00N 09°13' W 079°56'0 0.1
2018-Jan-09 14:30N 09°13' W 079°56'0 0.1
2018-Jan-09 14:00N 09°13' W 079°56'0 0.1
2018-Jan-09 13:30N 09°13' W 079°56'0 0.0
2018-Jan-09 13:00N 09°13' W 079°56'0 0.0
2018-Jan-09 12:30N 09°13' W 079°56'0 1.0
2018-Jan-09 12:01N 09°13' W 079°56'3 5.4
2018-Jan-09 11:30N 09°16' W 079°55'1 1.2
2018-Jan-09 11:00N 09°16' W 079°55'0 0.5
2018-Jan-09 10:30N 09°17' W 079°55'0 0.4
2018-Jan-09 10:00N 09°17' W 079°55'1 1.7
2018-Jan-09 09:30N 09°18' W 079°55'2 4.8
2018-Jan-09 09:01N 09°20' W 079°55'2 4.5
2018-Jan-09 08:30N 09°22' W 079°55'3 6.8
2018-Jan-09 08:00N 09°26' W 079°55'3 5.9
2018-Jan-09 07:31N 09°27' W 079°57'0 0.7
2018-Jan-09 06:59N 09°27' W 079°58'0 0.1
2018-Jan-09 06:29N 09°27' W 079°58'0 0.0
2018-Jan-09 05:59N 09°27' W 079°58'0 0.0
2018-Jan-09 05:29N 09°27' W 079°58'0 0.0
2018-Jan-09 04:59N 09°27' W 079°58'0 0.1
2018-Jan-09 04:29N 09°27' W 079°58'0 0.1
2018-Jan-09 03:59N 09°27' W 079°58'0 0.1
2018-Jan-09 03:29N 09°27' W 079°58'0 0.0
2018-Jan-09 02:59N 09°27' W 079°58'0 0.0
2018-Jan-09 02:29N 09°27' W 079°58'0 0.0
2018-Jan-09 01:59N 09°27' W 079°58'0 0.0
2018-Jan-09 01:26N 09°27' W 079°58'0 0.0
2018-Jan-09 00:59N 09°27' W 079°58'0 0.0
2018-Jan-09 00:29N 09°27' W 079°58'0 0.0
2018-Jan-08 23:59N 09°27' W 079°58'0 0.0
2018-Jan-08 23:29N 09°27' W 079°58'0 0.0
2018-Jan-08 22:59N 09°27' W 079°58'0 0.0
2018-Jan-08 22:29N 09°27' W 079°58'0 0.1
2018-Jan-08 21:59N 09°27' W 079°58'0 0.0
2018-Jan-08 21:29N 09°27' W 079°58'0 0.0
2018-Jan-08 20:59N 09°27' W 079°58'0 0.0
2018-Jan-08 20:29N 09°27' W 079°58'0 0.0
2018-Jan-08 19:59N 09°27' W 079°58'0 0.0
2018-Jan-08 19:29N 09°27' W 079°58'0 0.0
2018-Jan-08 18:59N 09°27' W 079°58'0 0.0
2018-Jan-08 18:29N 09°27' W 079°58'0 0.0
2018-Jan-08 17:59N 09°27' W 079°58'0 0.0
2018-Jan-08 17:29N 09°27' W 079°58'0 0.1
2018-Jan-08 16:59N 09°27' W 079°58'0 0.1
2018-Jan-08 16:26N 09°27' W 079°58'0 0.2
2018-Jan-08 16:00N 09°27' W 079°58'3 6.1
2018-Jan-08 15:30N 09°29' W 079°55'5 9.5
2018-Jan-08 15:00N 09°33' W 079°53'612.7
2018-Jan-08 14:30N 09°39' W 079°53'  
2018-Jan-03 11:33N 29°22' W 094°48'111.9
2018-Jan-03 11:26N 29°23' W 094°49'510.8
2018-Jan-03 11:00N 29°27' W 094°51'510.1
2018-Jan-03 10:30N 29°32' W 094°54'5 9.7
2018-Jan-03 10:00N 29°36' W 094°57'5 9.5
2018-Jan-03 09:30N 29°40' W 094°59'4 7.0
2018-Jan-03 09:00N 29°43' W 095°01'2 5.0
2018-Jan-03 08:30N 29°44' W 095°04'2 4.0
2018-Jan-03 08:00N 29°45' W 095°06'0 0.0
2018-Jan-02 07:14N 29°45' W 095°06'0 1.1
2018-Jan-02 06:58N 29°45' W 095°06'2 4.3
2018-Jan-02 06:30N 29°44' W 095°04'3 6.0
2018-Jan-02 06:00N 29°42' W 095°01'4 8.7
2018-Jan-02 05:31N 29°39' W 094°58'1412.0
2018-Jan-02 04:19N 29°26' W 094°50'  
2017-Dec-30 20:11N 29°22' W 094°48'210.1
2017-Dec-30 19:58N 29°24' W 094°49'510.5
2017-Dec-30 19:29N 29°28' W 094°51'511.2
2017-Dec-30 19:00N 29°33' W 094°54'511.0
2017-Dec-30 18:30N 29°38' W 094°58'5 9.6
2017-Dec-30 18:00N 29°42' W 094°60'  

Dump ship's entire track history